Stretham, United Kingdom
Current Conditions -  °F | °C
As of 4:50 PM on Saturday 22 Nov 2014 (Local Time) from EGSC Reporting Station
Scattered Clouds Scattered Clouds  
Wind Chill: 55°   Ceiling: Unl
Heat Index: 55°   Visibility: 5mi
Dew Point: 54°   Wind: 5mph
Humidity: 94%   Direction: 140°SE
Pressure: 29.91"   Gusts: NA
Location:  52.35°N, 0.22°E
Report Text: EGSC 221650Z 14004KT 110V170 8000 SCT017 13/12 Q1013
Loading
Personal Weather Stations






























Interactive Weather Map New forecast layout! Learn more

10-Day Weather Forecast

Advertisements
Track Severe Weather on mobile